createdAt,value
2019-02-22T00:00:24.316Z,23.5
2019-02-22T00:01:26.480Z,23.5
2019-02-22T00:02:28.348Z,23.5
2019-02-22T00:03:30.492Z,23.5
2019-02-22T00:04:32.413Z,23.5
2019-02-22T00:05:34.855Z,23.5
2019-02-22T00:06:37.026Z,23.6
2019-02-22T00:07:39.471Z,23.6
2019-02-22T00:08:41.631Z,23.6
2019-02-22T00:10:48.748Z,23.6
2019-02-22T00:11:50.647Z,23.6
2019-02-22T00:12:52.785Z,23.6
2019-02-22T00:13:55.204Z,23.6
2019-02-22T00:14:57.126Z,23.6
2019-02-22T00:15:59.258Z,23.6
2019-02-22T00:17:01.690Z,23.6
2019-02-22T00:18:04.122Z,23.6
2019-02-22T00:19:06.552Z,23.6
2019-02-22T00:20:08.697Z,23.6
2019-02-22T00:21:10.615Z,23.6
2019-02-22T00:22:13.057Z,23.6
2019-02-22T00:23:15.521Z,23.6
2019-02-22T00:24:17.659Z,23.6
2019-02-22T00:25:20.090Z,23.6
2019-02-22T00:26:22.515Z,23.6
2019-02-22T00:27:24.952Z,23.6
2019-02-22T00:28:27.107Z,23.6
2019-02-22T00:29:29.254Z,23.6
2019-02-22T00:30:30.850Z,23.6
2019-02-22T00:31:33.268Z,23.6
2019-02-22T00:32:35.430Z,23.6
2019-02-22T00:33:37.574Z,23.6
2019-02-22T00:34:39.808Z,23.6
2019-02-22T00:35:42.083Z,23.6
2019-02-22T00:36:44.223Z,23.6
2019-02-22T00:37:46.689Z,23.7
2019-02-22T00:38:48.581Z,23.6
2019-02-22T00:39:50.453Z,23.7
2019-02-22T00:40:52.878Z,23.7
2019-02-22T00:41:55.036Z,23.7
2019-02-22T00:42:57.214Z,23.7
2019-02-22T00:43:59.373Z,23.7
2019-02-22T00:45:01.813Z,23.7
2019-02-22T00:46:03.684Z,23.7
2019-02-22T00:47:05.827Z,23.7
2019-02-22T00:48:07.996Z,23.7
2019-02-22T00:49:10.158Z,23.7
2019-02-22T00:50:12.014Z,23.7
2019-02-22T00:51:14.170Z,23.7
2019-02-22T00:52:16.342Z,23.7
2019-02-22T00:53:18.847Z,23.7
2019-02-22T00:54:21.261Z,23.7
2019-02-22T00:55:23.709Z,23.7
2019-02-22T00:56:25.853Z,23.7
2019-02-22T00:57:28.053Z,23.7
2019-02-22T00:58:30.483Z,23.7
2019-02-22T00:59:32.924Z,23.7
2019-02-22T01:00:34.797Z,23.7
2019-02-22T01:01:36.934Z,23.7
2019-02-22T01:02:39.365Z,23.8
2019-02-22T01:03:41.512Z,23.8
2019-02-22T01:04:43.664Z,23.8
2019-02-22T01:05:45.854Z,23.8
2019-02-22T01:06:48.294Z,23.8
2019-02-22T01:07:50.433Z,23.8
2019-02-22T01:08:52.865Z,23.8
2019-02-22T01:09:55.289Z,23.8
2019-02-22T01:10:57.427Z,23.8
2019-02-22T01:11:59.854Z,23.9
2019-02-22T01:13:02.282Z,23.9
2019-02-22T01:14:04.736Z,23.9
2019-02-22T01:15:06.892Z,23.9
2019-02-22T01:16:09.331Z,23.9
2019-02-22T01:17:11.779Z,23.9
2019-02-22T01:18:13.930Z,23.9
2019-02-22T01:19:16.106Z,23.9
2019-02-22T01:20:17.994Z,23.9
2019-02-22T01:21:20.418Z,24
2019-02-22T01:22:22.576Z,24
2019-02-22T01:23:24.742Z,24
2019-02-22T01:24:26.353Z,24
2019-02-22T01:25:28.780Z,24
2019-02-22T01:26:31.213Z,24
2019-02-22T01:27:33.443Z,24
2019-02-22T01:28:35.871Z,24
2019-02-22T01:29:38.294Z,24
2019-02-22T01:30:40.722Z,24
2019-02-22T01:31:42.619Z,24
2019-02-22T01:32:45.055Z,24
2019-02-22T01:33:47.494Z,24
2019-02-22T01:34:48.826Z,24
2019-02-22T01:35:50.705Z,24
2019-02-22T01:36:53.214Z,24.1
2019-02-22T01:37:55.099Z,24.1
2019-02-22T01:38:57.243Z,24.1
2019-02-22T01:39:59.763Z,24.1
2019-02-22T01:41:02.200Z,24.1
2019-02-22T01:42:04.615Z,24.1
2019-02-22T01:43:06.774Z,24.1
2019-02-22T01:44:08.926Z,24.1
2019-02-22T01:45:11.084Z,24.1
2019-02-22T01:46:13.513Z,24.1
2019-02-22T01:47:15.404Z,24.1
2019-02-22T01:48:17.844Z,24.1
2019-02-22T01:49:20.272Z,24.1
2019-02-22T01:50:22.734Z,24.1
2019-02-22T01:51:24.888Z,24.1
2019-02-22T01:52:27.334Z,24.1
2019-02-22T01:53:29.212Z,24.1
2019-02-22T01:54:30.809Z,24.1
2019-02-22T01:55:32.721Z,24.2
2019-02-22T01:56:34.882Z,24.1
2019-02-22T01:57:37.312Z,24.1
2019-02-22T01:59:44.730Z,24.2
2019-02-22T02:00:47.178Z,24.2
2019-02-22T02:01:49.062Z,24.1
2019-02-22T02:02:51.226Z,24.1
2019-02-22T02:03:53.647Z,24.2
2019-02-22T02:04:55.804Z,24.1
2019-02-22T02:05:58.228Z,24.1
2019-02-22T02:07:00.134Z,24.1
2019-02-22T02:08:02.557Z,24.1
2019-02-22T02:09:04.986Z,24.1
2019-02-22T02:10:07.414Z,24.1
2019-02-22T02:11:09.843Z,24.1
2019-02-22T02:12:12.277Z,24.1
2019-02-22T02:13:14.726Z,24.1
2019-02-22T02:14:16.886Z,24.1
2019-02-22T02:15:19.333Z,24.1
2019-02-22T02:16:21.456Z,24.1
2019-02-22T02:17:23.617Z,24.2
2019-02-22T02:18:26.043Z,24.2
2019-02-22T02:19:28.210Z,24.2
2019-02-22T02:20:30.723Z,24.2
2019-02-22T02:21:32.905Z,24.1
2019-02-22T02:22:35.314Z,24.2
2019-02-22T02:23:37.739Z,24.2
2019-02-22T02:24:40.484Z,24.2
2019-02-22T02:25:42.633Z,24.2
2019-02-22T02:26:45.058Z,24.2
2019-02-22T02:27:47.485Z,24.2
2019-02-22T02:29:54.994Z,24.1
2019-02-22T02:30:57.201Z,24.1
2019-02-22T02:31:59.621Z,24.1
2019-02-22T02:33:01.762Z,24.1
2019-02-22T02:34:04.182Z,24.1
2019-02-22T02:35:06.345Z,24.1
2019-02-22T02:36:08.641Z,24.1
2019-02-22T02:37:10.914Z,24.1
2019-02-22T02:38:12.798Z,24.1
2019-02-22T02:39:14.680Z,24.1
2019-02-22T02:40:16.834Z,24.1
2019-02-22T02:41:18.703Z,24.1
2019-02-22T02:42:21.121Z,24.1
2019-02-22T02:43:23.554Z,24.1
2019-02-22T02:44:26.002Z,24.2
2019-02-22T02:45:28.434Z,24.1
2019-02-22T02:46:30.848Z,24.1
2019-02-22T02:47:32.704Z,24.1
2019-02-22T02:48:35.141Z,24.1
2019-02-22T02:49:37.011Z,24.2
2019-02-22T02:50:39.434Z,24.1
2019-02-22T02:51:41.864Z,24.1
2019-02-22T02:52:44.002Z,24.1
2019-02-22T02:53:46.412Z,24.1
2019-02-22T02:54:48.555Z,24.1
2019-02-22T02:55:50.981Z,24.2
2019-02-22T02:56:53.132Z,24.1
2019-02-22T02:57:55.558Z,24.2
2019-02-22T02:58:57.703Z,24.2
2019-02-22T03:00:00.364Z,24.2
2019-02-22T03:01:02.923Z,24.2
2019-02-22T03:02:05.367Z,24.2
2019-02-22T03:03:07.845Z,24.2
2019-02-22T03:04:10.017Z,24.2
2019-02-22T03:05:11.870Z,24.2
2019-02-22T03:06:14.036Z,24.2
2019-02-22T03:07:16.184Z,24.2
2019-02-22T03:08:18.332Z,24.2
2019-02-22T03:09:20.210Z,24.2
2019-02-22T03:10:22.674Z,24.2
2019-02-22T03:11:24.577Z,24.2
2019-02-22T03:12:26.725Z,24.2
2019-02-22T03:13:29.054Z,24.2
2019-02-22T03:14:31.466Z,24.1
2019-02-22T03:15:33.890Z,24.2
2019-02-22T03:16:36.056Z,24.1
2019-02-22T03:17:37.932Z,24.1
2019-02-22T03:18:40.089Z,24.1
2019-02-22T03:19:42.235Z,24.1
2019-02-22T03:20:44.658Z,24.1
2019-02-22T03:21:47.093Z,24.2
2019-02-22T03:22:49.526Z,24.2
2019-02-22T03:23:51.720Z,24.1
2019-02-22T03:24:54.722Z,24.1
2019-02-22T03:25:56.876Z,24.2
2019-02-22T03:26:59.086Z,24.2
2019-02-22T03:28:01.515Z,24.2
2019-02-22T03:29:03.663Z,24.2
2019-02-22T03:30:06.083Z,24.2
2019-02-22T03:31:08.598Z,24.2
2019-02-22T03:32:11.222Z,24.2
2019-02-22T03:33:13.782Z,24.2
2019-02-22T03:34:15.975Z,24.2
2019-02-22T03:35:18.127Z,24.2
2019-02-22T03:36:35.211Z,24.2
2019-02-22T03:37:37.342Z,24.2
2019-02-22T03:38:39.487Z,24.2
2019-02-22T03:39:41.650Z,24.2
2019-02-22T03:40:43.794Z,24.2
2019-02-22T03:41:46.218Z,24.2
2019-02-22T03:42:48.373Z,24.2
2019-02-22T03:43:50.798Z,24.2
2019-02-22T03:44:53.239Z,24.2
2019-02-22T03:45:55.654Z,24.2
2019-02-22T03:46:57.806Z,24.2
2019-02-22T03:47:59.955Z,24.2
2019-02-22T03:49:02.387Z,24.2
2019-02-22T03:50:04.550Z,24.2
2019-02-22T03:51:06.983Z,24.2
2019-02-22T03:52:09.409Z,24.2
2019-02-22T03:53:11.831Z,24.2
2019-02-22T03:54:14.274Z,24.2
2019-02-22T03:55:16.444Z,24.2
2019-02-22T03:56:18.600Z,24.2
2019-02-22T03:57:20.755Z,24.2
2019-02-22T03:58:23.195Z,24.2
2019-02-22T03:59:25.616Z,24.2
2019-02-22T04:00:28.042Z,24.2
2019-02-22T04:01:29.931Z,24.2
2019-02-22T04:02:32.074Z,24.2
2019-02-22T04:03:33.683Z,24.2
2019-02-22T04:04:35.539Z,24.2
2019-02-22T04:05:37.678Z,24.2
2019-02-22T04:06:40.099Z,24.2
2019-02-22T04:07:42.527Z,24.1
2019-02-22T04:08:44.964Z,24.1
2019-02-22T04:09:47.381Z,24.1
2019-02-22T04:10:49.546Z,24.1
2019-02-22T04:11:51.985Z,24.1
2019-02-22T04:12:54.124Z,24.1
2019-02-22T04:13:56.553Z,24.1
2019-02-22T04:14:58.678Z,24
2019-02-22T04:16:00.297Z,24
2019-02-22T04:17:02.725Z,24
2019-02-22T04:18:05.150Z,24
2019-02-22T04:19:07.580Z,24
2019-02-22T04:20:10.000Z,24
2019-02-22T04:21:12.155Z,24
2019-02-22T04:22:14.313Z,24
2019-02-22T04:23:16.469Z,24
2019-02-22T04:24:18.915Z,24
2019-02-22T04:25:20.737Z,24
2019-02-22T04:26:23.171Z,24
2019-02-22T04:27:25.594Z,23.9
2019-02-22T04:28:28.018Z,23.9
2019-02-22T04:29:30.443Z,23.9
2019-02-22T04:30:32.870Z,23.9
2019-02-22T04:31:35.294Z,23.9
2019-02-22T04:32:37.435Z,23.9
2019-02-22T04:33:39.871Z,23.9
2019-02-22T04:34:41.749Z,23.9
2019-02-22T04:35:44.158Z,23.9
2019-02-22T04:36:46.325Z,23.9
2019-02-22T04:37:48.748Z,23.9
2019-02-22T04:38:50.950Z,23.9
2019-02-22T04:39:53.176Z,23.9
2019-02-22T04:40:55.334Z,23.9
2019-02-22T04:41:59.314Z,23.9
2019-02-22T04:43:01.996Z,23.9
2019-02-22T04:44:04.228Z,23.9
2019-02-22T04:45:06.669Z,23.9
2019-02-22T04:46:08.836Z,23.9
2019-02-22T04:47:11.297Z,23.9
2019-02-22T04:48:13.749Z,23.9
2019-02-22T04:49:16.182Z,23.9
2019-02-22T04:50:18.637Z,23.9
2019-02-22T04:51:21.093Z,23.9
2019-02-22T04:52:23.542Z,23.9
2019-02-22T04:53:25.986Z,23.9
2019-02-22T04:54:28.419Z,23.8
2019-02-22T04:55:30.858Z,23.8
2019-02-22T04:56:33.315Z,23.8
2019-02-22T04:57:35.747Z,23.8
2019-02-22T04:58:38.165Z,23.8
2019-02-22T04:59:40.605Z,23.8
2019-02-22T05:00:42.485Z,23.8
2019-02-22T05:01:44.634Z,23.8
2019-02-22T05:02:46.830Z,23.8
2019-02-22T05:03:48.981Z,23.8
2019-02-22T05:04:50.883Z,23.8
2019-02-22T05:05:53.285Z,23.8
2019-02-22T05:06:55.725Z,23.8
2019-02-22T05:07:58.143Z,23.8
2019-02-22T05:09:00.428Z,23.8
2019-02-22T05:10:02.854Z,23.8
2019-02-22T05:11:05.023Z,23.8
2019-02-22T05:13:12.461Z,23.8
2019-02-22T05:14:14.636Z,23.8
2019-02-22T05:15:17.069Z,23.8
2019-02-22T05:16:19.494Z,23.8
2019-02-22T05:17:21.915Z,23.8
2019-02-22T05:18:24.348Z,23.8
2019-02-22T05:19:26.764Z,23.8
2019-02-22T05:20:28.668Z,23.8
2019-02-22T05:21:31.096Z,23.8
2019-02-22T05:22:33.516Z,23.8
2019-02-22T05:23:35.380Z,23.7
2019-02-22T05:24:37.317Z,23.7
2019-02-22T05:25:39.743Z,23.7
2019-02-22T05:26:42.212Z,23.7
2019-02-22T05:27:44.384Z,23.7
2019-02-22T05:28:46.515Z,23.7
2019-02-22T05:29:48.664Z,23.7
2019-02-22T05:30:51.099Z,23.7
2019-02-22T05:31:53.233Z,23.7
2019-02-22T05:32:55.703Z,23.7
2019-02-22T05:33:58.120Z,23.7
2019-02-22T05:35:00.500Z,23.7
2019-02-22T05:36:02.921Z,23.7
2019-02-22T05:37:05.521Z,23.7
2019-02-22T05:38:07.670Z,23.7
2019-02-22T05:40:15.084Z,23.7
2019-02-22T05:41:17.522Z,23.7
2019-02-22T05:43:24.937Z,23.7
2019-02-22T05:44:27.083Z,23.7
2019-02-22T05:45:29.278Z,23.7
2019-02-22T05:46:31.448Z,23.7
2019-02-22T05:47:34.025Z,23.7
2019-02-22T05:49:41.639Z,23.7
2019-02-22T05:50:43.913Z,23.7
2019-02-22T05:51:46.334Z,23.7
2019-02-22T05:52:48.476Z,23.7
2019-02-22T05:53:50.902Z,23.7
2019-02-22T05:54:53.070Z,23.7
2019-02-22T05:55:55.226Z,23.7
2019-02-22T05:56:57.639Z,23.7
2019-02-22T05:57:59.233Z,23.7
2019-02-22T05:59:01.384Z,23.7
2019-02-22T06:00:03.818Z,23.7
2019-02-22T06:01:07.611Z,23.7
2019-02-22T06:02:09.877Z,23.7
2019-02-22T06:03:12.321Z,23.7
2019-02-22T06:04:14.829Z,23.7
2019-02-22T06:05:17.066Z,23.7
2019-02-22T06:06:19.493Z,23.7
2019-02-22T06:07:21.647Z,23.7
2019-02-22T06:08:23.515Z,23.7
2019-02-22T06:09:25.953Z,23.7
2019-02-22T06:10:28.385Z,23.7
2019-02-22T06:11:30.554Z,23.7
2019-02-22T06:13:38.018Z,23.6
2019-02-22T06:14:40.471Z,23.6
2019-02-22T06:15:43.021Z,23.7
2019-02-22T06:16:45.245Z,23.6
2019-02-22T06:17:47.699Z,23.6
2019-02-22T06:18:50.130Z,23.6
2019-02-22T06:19:52.572Z,23.6
2019-02-22T06:20:54.733Z,23.6
2019-02-22T06:21:57.152Z,23.6
2019-02-22T06:22:59.311Z,23.6
2019-02-22T06:24:04.156Z,23.6
2019-02-22T06:25:06.613Z,23.6
2019-02-22T06:26:09.128Z,23.6
2019-02-22T06:27:11.295Z,23.6
2019-02-22T06:28:13.722Z,23.6
2019-02-22T06:29:16.245Z,23.6
2019-02-22T06:30:18.686Z,23.6
2019-02-22T06:31:20.884Z,23.6
2019-02-22T06:32:23.319Z,23.6
2019-02-22T06:33:25.803Z,23.6
2019-02-22T06:34:27.995Z,23.6
2019-02-22T06:35:30.467Z,23.6
2019-02-22T06:36:33.002Z,23.6
2019-02-22T06:37:35.463Z,23.6
2019-02-22T06:38:37.596Z,23.6
2019-02-22T06:39:39.758Z,23.6
2019-02-22T06:40:42.183Z,23.6
2019-02-22T06:41:44.613Z,23.6
2019-02-22T06:42:47.302Z,23.6
2019-02-22T06:43:50.010Z,23.6
2019-02-22T06:44:51.935Z,23.6
2019-02-22T06:45:54.381Z,23.6
2019-02-22T06:46:56.543Z,23.6
2019-02-22T06:47:58.969Z,23.6
2019-02-22T06:49:01.390Z,23.6
2019-02-22T06:50:03.820Z,23.6
2019-02-22T06:51:05.969Z,23.6
2019-02-22T06:52:08.125Z,23.6
2019-02-22T06:53:10.553Z,23.6
2019-02-22T06:54:12.705Z,23.6
2019-02-22T06:55:14.608Z,23.6
2019-02-22T06:56:17.055Z,23.6
2019-02-22T06:57:19.236Z,23.6
2019-02-22T06:58:20.961Z,23.6
2019-02-22T06:59:23.411Z,23.6
2019-02-22T07:00:25.846Z,23.6
2019-02-22T07:01:28.285Z,23.6
2019-02-22T07:02:30.229Z,23.6
2019-02-22T07:03:32.392Z,23.6
2019-02-22T07:04:34.549Z,23.6
2019-02-22T07:05:36.717Z,23.6
2019-02-22T07:06:39.151Z,23.6
2019-02-22T07:07:41.038Z,23.6
2019-02-22T07:08:43.195Z,23.6
2019-02-22T07:09:45.315Z,23.6
2019-02-22T07:10:47.467Z,23.6
2019-02-22T07:11:50.059Z,23.6
2019-02-22T07:13:57.245Z,23.6
2019-02-22T07:14:59.396Z,23.6
2019-02-22T07:16:01.891Z,23.6
2019-02-22T07:17:04.083Z,23.6
2019-02-22T07:18:06.239Z,23.6
2019-02-22T07:19:08.423Z,23.6
2019-02-22T07:20:10.585Z,23.6
2019-02-22T07:21:13.045Z,23.6
2019-02-22T07:22:14.939Z,23.6
2019-02-22T07:23:17.371Z,23.6
2019-02-22T07:24:19.889Z,23.6
2019-02-22T07:25:22.324Z,23.6
2019-02-22T07:26:24.755Z,23.6
2019-02-22T07:27:27.256Z,23.6
2019-02-22T07:28:29.405Z,23.6
2019-02-22T07:29:31.558Z,23.6
2019-02-22T07:30:33.785Z,23.6
2019-02-22T07:31:36.205Z,23.6
2019-02-22T07:32:38.473Z,23.6
2019-02-22T07:33:40.737Z,23.6
2019-02-22T07:34:42.912Z,23.6
2019-02-22T07:35:45.085Z,23.6
2019-02-22T07:36:47.250Z,23.6
2019-02-22T07:37:49.883Z,23.6
2019-02-22T07:38:52.313Z,23.6
2019-02-22T07:39:54.736Z,23.6
2019-02-22T07:40:56.889Z,23.6
2019-02-22T07:41:59.321Z,23.6
2019-02-22T07:44:06.738Z,23.6
2019-02-22T07:45:09.159Z,23.6
2019-02-22T07:46:11.623Z,23.6
2019-02-22T07:47:13.775Z,23.6
2019-02-22T07:48:16.212Z,23.6
2019-02-22T07:49:18.635Z,23.6
2019-02-22T07:50:20.807Z,23.6
2019-02-22T07:51:23.246Z,23.6
2019-02-22T07:52:25.382Z,23.6
2019-02-22T07:53:27.275Z,23.6
2019-02-22T07:54:29.701Z,23.6
2019-02-22T07:55:32.187Z,23.6
2019-02-22T07:56:34.081Z,23.6
2019-02-22T07:57:36.287Z,23.6
2019-02-22T07:58:42.915Z,23.6
2019-02-22T07:59:44.767Z,23.6
2019-02-22T08:00:46.653Z,23.6
2019-02-22T08:01:49.295Z,23.6
2019-02-22T08:02:51.457Z,23.6
2019-02-22T08:03:53.908Z,23.6
2019-02-22T08:04:56.346Z,23.6
2019-02-22T08:05:58.521Z,23.6
2019-02-22T08:07:00.944Z,23.6
2019-02-22T08:08:03.407Z,23.6
2019-02-22T08:09:05.315Z,23.6
2019-02-22T08:10:07.739Z,23.6
2019-02-22T08:11:09.914Z,23.6
2019-02-22T08:12:12.346Z,23.6
2019-02-22T08:14:19.792Z,23.6
2019-02-22T08:15:21.696Z,23.6
2019-02-22T08:16:24.141Z,23.6
2019-02-22T08:17:26.600Z,23.6
2019-02-22T08:18:28.486Z,23.6
2019-02-22T08:19:30.671Z,23.6
2019-02-22T08:20:32.798Z,23.6
2019-02-22T08:21:35.240Z,23.6
2019-02-22T08:22:37.671Z,23.6
2019-02-22T08:23:39.849Z,23.6
2019-02-22T08:24:42.276Z,23.6
2019-02-22T08:25:44.709Z,23.6
2019-02-22T08:26:46.600Z,23.6
2019-02-22T08:28:53.715Z,23.6
2019-02-22T08:29:55.593Z,23.6
2019-02-22T08:30:57.784Z,23.6
2019-02-22T08:32:00.242Z,23.6
2019-02-22T08:33:02.661Z,23.6
2019-02-22T08:34:04.819Z,23.6
2019-02-22T08:35:07.241Z,23.6
2019-02-22T08:36:09.692Z,23.6
2019-02-22T08:37:12.132Z,23.6
2019-02-22T08:38:14.587Z,23.6
2019-02-22T08:39:17.012Z,23.6
2019-02-22T08:40:19.159Z,23.6
2019-02-22T08:41:21.315Z,23.6
2019-02-22T08:42:23.469Z,23.5
2019-02-22T08:44:30.879Z,23.5
2019-02-22T08:45:33.316Z,23.5
2019-02-22T08:46:35.742Z,23.5
2019-02-22T08:47:37.631Z,23.5
2019-02-22T08:48:39.801Z,23.5
2019-02-22T08:49:42.231Z,23.5
2019-02-22T08:50:44.441Z,23.5
2019-02-22T08:51:46.665Z,23.5
2019-02-22T08:52:49.089Z,23.5
2019-02-22T08:53:51.239Z,23.5
2019-02-22T08:54:53.672Z,23.5
2019-02-22T08:55:56.210Z,23.5
2019-02-22T08:56:58.377Z,23.5
2019-02-22T08:58:00.802Z,23.5
2019-02-22T08:59:03.227Z,23.5
2019-02-22T09:00:05.393Z,23.5
2019-02-22T09:01:07.845Z,23.5
2019-02-22T09:02:10.381Z,23.5
2019-02-22T09:03:12.812Z,23.5
2019-02-22T09:04:15.252Z,23.5
2019-02-22T09:05:17.687Z,23.5
2019-02-22T09:06:19.880Z,23.5
2019-02-22T09:07:22.306Z,23.5
2019-02-22T09:08:24.755Z,23.5
2019-02-22T09:09:26.656Z,23.5
2019-02-22T09:10:29.099Z,23.5
2019-02-22T09:11:31.523Z,23.5
2019-02-22T09:12:33.988Z,23.5
2019-02-22T09:14:41.384Z,23.5
2019-02-22T09:15:43.527Z,23.5
2019-02-22T09:16:45.670Z,23.5
2019-02-22T09:17:46.995Z,23.5
2019-02-22T09:18:49.432Z,23.5
2019-02-22T09:19:51.609Z,23.5
2019-02-22T09:20:54.051Z,23.5
2019-02-22T09:21:56.478Z,23.5
2019-02-22T09:22:58.662Z,23.5
2019-02-22T09:24:01.080Z,23.5
2019-02-22T09:25:03.229Z,23.5
2019-02-22T09:26:05.700Z,23.5
2019-02-22T09:27:08.134Z,23.5
2019-02-22T09:28:10.568Z,23.5
2019-02-22T09:29:12.746Z,23.5
2019-02-22T09:30:14.902Z,23.5
2019-02-22T09:31:17.315Z,23.5
2019-02-22T09:32:19.483Z,23.5
2019-02-22T09:33:21.621Z,23.5
2019-02-22T09:34:24.084Z,23.5
2019-02-22T09:35:26.215Z,23.5
2019-02-22T09:36:28.463Z,23.5
2019-02-22T09:37:30.979Z,23.5
2019-02-22T09:38:33.111Z,23.5
2019-02-22T09:39:35.533Z,23.5
2019-02-22T09:40:38.037Z,23.5
2019-02-22T09:41:40.198Z,23.5
2019-02-22T09:42:42.648Z,23.5
2019-02-22T09:44:49.794Z,23.5
2019-02-22T09:45:52.258Z,23.5
2019-02-22T09:46:54.696Z,23.5
2019-02-22T09:47:56.835Z,23.5
2019-02-22T09:48:59.271Z,23.5
2019-02-22T09:50:01.171Z,23.5
2019-02-22T09:51:03.322Z,23.5
2019-02-22T09:52:05.235Z,23.5
2019-02-22T09:53:07.667Z,23.5
2019-02-22T09:54:09.821Z,23.5
2019-02-22T09:55:12.258Z,23.5
2019-02-22T09:56:14.423Z,23.5
2019-02-22T09:57:16.302Z,23.5
2019-02-22T09:58:18.739Z,23.5
2019-02-22T09:59:20.614Z,23.5
2019-02-22T10:00:23.048Z,23.5
2019-02-22T10:01:25.218Z,23.5
2019-02-22T10:02:27.092Z,23.5
2019-02-22T10:03:29.266Z,23.5
2019-02-22T10:04:31.418Z,23.5
2019-02-22T10:05:33.856Z,23.5
2019-02-22T10:06:36.299Z,23.5
2019-02-22T10:07:38.457Z,23.5
2019-02-22T10:08:40.376Z,23.5
2019-02-22T10:09:42.514Z,23.5
2019-02-22T10:10:44.947Z,23.5
2019-02-22T10:11:46.272Z,23.5
2019-02-22T10:12:48.396Z,23.5
2019-02-22T10:13:50.829Z,23.5
2019-02-22T10:14:53.252Z,23.5
2019-02-22T10:15:55.186Z,23.5
2019-02-22T10:16:57.062Z,23.5
2019-02-22T10:17:59.505Z,23.5
2019-02-22T10:19:01.662Z,23.5
2019-02-22T10:20:03.823Z,23.5
2019-02-22T10:21:05.993Z,23.5
2019-02-22T10:22:07.883Z,23.5
2019-02-22T10:23:10.037Z,23.5
2019-02-22T10:24:12.188Z,23.5
2019-02-22T10:25:14.612Z,23.5
2019-02-22T10:26:17.074Z,23.5
2019-02-22T10:27:19.224Z,23.5
2019-02-22T10:28:21.661Z,23.5
2019-02-22T10:29:24.095Z,23.5
2019-02-22T10:30:26.243Z,23.5
2019-02-22T10:31:28.160Z,23.5
2019-02-22T10:32:30.325Z,23.5
2019-02-22T10:34:37.458Z,23.5
2019-02-22T10:35:39.895Z,23.5
2019-02-22T10:37:47.056Z,23.5
2019-02-22T10:38:49.531Z,23.5
2019-02-22T10:39:51.987Z,23.5
2019-02-22T10:40:54.422Z,23.5
2019-02-22T10:41:56.574Z,23.5
2019-02-22T10:42:58.732Z,23.5
2019-02-22T10:44:00.921Z,23.5
2019-02-22T10:45:03.371Z,23.5
2019-02-22T10:46:05.561Z,23.5
2019-02-22T10:47:07.443Z,23.5
2019-02-22T10:48:09.889Z,23.5
2019-02-22T10:49:12.327Z,23.5
2019-02-22T10:50:14.495Z,23.5
2019-02-22T10:51:16.933Z,23.5
2019-02-22T10:52:19.360Z,23.5
2019-02-22T10:53:21.784Z,23.5
2019-02-22T10:54:23.962Z,23.5
2019-02-22T10:55:26.137Z,23.5
2019-02-22T10:56:29.072Z,23.5
2019-02-22T10:57:31.243Z,23.5
2019-02-22T10:58:33.671Z,23.5
2019-02-22T10:59:36.115Z,23.5
2019-02-22T11:00:38.271Z,23.5
2019-02-22T11:01:40.420Z,23.5
2019-02-22T11:02:42.558Z,23.5
2019-02-22T11:03:44.782Z,23.5
2019-02-22T11:04:47.001Z,23.5
2019-02-22T11:05:49.154Z,23.5
2019-02-22T11:06:51.019Z,23.5
2019-02-22T11:07:53.197Z,23.5
2019-02-22T11:08:55.368Z,23.5
2019-02-22T11:09:57.512Z,23.5
2019-02-22T11:10:59.943Z,23.5
2019-02-22T11:12:02.367Z,23.5
2019-02-22T11:13:04.548Z,23.5
2019-02-22T11:14:06.971Z,23.5
2019-02-22T11:15:08.868Z,23.5
2019-02-22T11:16:10.457Z,23.5
2019-02-22T11:17:12.880Z,23.5
2019-02-22T11:18:15.032Z,23.5
2019-02-22T11:19:17.195Z,23.5
2019-02-22T11:20:19.628Z,23.5
2019-02-22T11:21:22.074Z,23.5
2019-02-22T11:22:24.258Z,23.5
2019-02-22T11:23:26.692Z,23.5
2019-02-22T11:24:28.858Z,23.5
2019-02-22T11:25:31.022Z,23.5
2019-02-22T11:26:33.191Z,23.5
2019-02-22T11:27:35.353Z,23.5
2019-02-22T11:28:37.518Z,23.5
2019-02-22T11:29:39.968Z,23.5
2019-02-22T11:30:42.390Z,23.5
2019-02-22T11:31:44.834Z,23.5
2019-02-22T11:32:47.266Z,23.5
2019-02-22T11:33:50.035Z,23.5
2019-02-22T11:34:52.470Z,23.5
2019-02-22T11:35:54.906Z,23.5
2019-02-22T11:36:57.040Z,23.5
2019-02-22T11:37:59.467Z,23.5
2019-02-22T11:39:01.637Z,23.5
2019-02-22T11:40:04.065Z,23.5
2019-02-22T11:41:06.202Z,23.5
2019-02-22T11:42:08.327Z,23.5
2019-02-22T11:43:10.514Z,23.5
2019-02-22T11:44:12.944Z,23.5
2019-02-22T11:45:15.368Z,23.5
2019-02-22T11:46:17.526Z,23.5
2019-02-22T11:47:19.712Z,23.5
2019-02-22T11:48:21.914Z,23.6
2019-02-22T11:49:24.387Z,23.5
2019-02-22T11:50:26.832Z,23.6
2019-02-22T11:51:29.274Z,23.5
2019-02-22T11:52:31.442Z,23.5
2019-02-22T11:53:33.864Z,23.5
2019-02-22T11:54:36.307Z,23.5
2019-02-22T11:55:38.727Z,23.5
2019-02-22T11:56:40.319Z,23.5
2019-02-22T11:57:42.758Z,23.5
2019-02-22T11:58:44.646Z,23.5
2019-02-22T11:59:46.830Z,23.5
2019-02-22T12:00:48.773Z,23.5
2019-02-22T12:01:51.195Z,23.5
2019-02-22T12:02:53.630Z,23.6
2019-02-22T12:03:56.080Z,23.6
2019-02-22T12:04:58.584Z,23.5
2019-02-22T12:06:01.012Z,23.6
2019-02-22T12:07:03.446Z,23.6
2019-02-22T12:08:05.351Z,23.6
2019-02-22T12:09:07.536Z,23.6
2019-02-22T12:10:09.442Z,23.6
2019-02-22T12:11:11.876Z,23.6
2019-02-22T12:12:14.038Z,23.6
2019-02-22T12:13:16.477Z,23.6
2019-02-22T12:14:18.633Z,23.6
2019-02-22T12:15:20.933Z,23.6
2019-02-22T12:16:22.835Z,23.6
2019-02-22T12:17:24.984Z,23.6
2019-02-22T12:18:27.401Z,23.6
2019-02-22T12:19:29.325Z,23.6
2019-02-22T12:20:31.213Z,23.6
2019-02-22T12:21:33.145Z,23.6
2019-02-22T12:22:35.331Z,23.6
2019-02-22T12:23:37.760Z,23.6
2019-02-22T12:24:40.217Z,23.6
2019-02-22T12:26:48.129Z,23.6
2019-02-22T12:27:50.604Z,23.6
2019-02-22T12:28:53.051Z,23.6
2019-02-22T12:29:55.197Z,23.6
2019-02-22T12:30:57.367Z,23.6
2019-02-22T12:31:59.825Z,23.6
2019-02-22T12:33:02.273Z,23.6
2019-02-22T12:34:04.697Z,23.6
2019-02-22T12:35:07.147Z,23.6
2019-02-22T12:36:10.707Z,23.6
2019-02-22T12:37:13.133Z,23.6
2019-02-22T12:38:15.026Z,23.6
2019-02-22T12:39:17.549Z,23.6
2019-02-22T12:40:20.021Z,23.6
2019-02-22T12:41:22.436Z,23.6
2019-02-22T12:42:24.875Z,23.6
2019-02-22T12:43:27.333Z,23.6
2019-02-22T12:44:29.847Z,23.6
2019-02-22T12:45:32.100Z,23.6
2019-02-22T12:46:33.987Z,23.6
2019-02-22T12:47:36.152Z,23.6
2019-02-22T12:48:38.051Z,23.6
2019-02-22T12:49:41.343Z,23.6
2019-02-22T12:50:43.479Z,23.6
2019-02-22T12:51:46.051Z,23.6
2019-02-22T12:52:48.485Z,23.6
2019-02-22T12:53:50.643Z,23.6
2019-02-22T12:54:52.544Z,23.6
2019-02-22T12:55:54.702Z,23.6
2019-02-22T12:56:58.935Z,23.6
2019-02-22T12:58:01.086Z,23.6
2019-02-22T12:59:03.524Z,23.6
2019-02-22T13:00:05.973Z,23.6
2019-02-22T13:01:08.398Z,23.6
2019-02-22T13:02:10.828Z,23.6
2019-02-22T13:03:12.438Z,23.7
2019-02-22T13:04:14.616Z,23.6
2019-02-22T13:05:17.051Z,23.6
2019-02-22T13:06:19.209Z,23.7
2019-02-22T13:07:21.724Z,23.7
2019-02-22T13:08:23.609Z,23.7
2019-02-22T13:10:30.764Z,23.7
2019-02-22T13:11:33.197Z,23.7
2019-02-22T13:12:35.621Z,23.7
2019-02-22T13:13:37.239Z,23.7
2019-02-22T13:14:39.403Z,23.7
2019-02-22T13:15:41.542Z,23.7
2019-02-22T13:16:43.984Z,23.7
2019-02-22T13:17:46.651Z,23.7
2019-02-22T13:18:49.070Z,23.7
2019-02-22T13:19:51.240Z,23.7
2019-02-22T13:20:54.032Z,23.7
2019-02-22T13:21:56.176Z,23.7
2019-02-22T13:22:58.320Z,23.7
2019-02-22T13:24:00.782Z,23.7
2019-02-22T13:25:02.926Z,23.7
2019-02-22T13:26:05.363Z,23.7
2019-02-22T13:27:07.811Z,23.7
2019-02-22T13:28:09.669Z,23.7
2019-02-22T13:29:11.827Z,23.7
2019-02-22T13:30:14.259Z,23.7
2019-02-22T13:31:16.699Z,23.7
2019-02-22T13:32:19.125Z,23.7
2019-02-22T13:33:21.579Z,23.7
2019-02-22T13:34:23.777Z,23.7
2019-02-22T13:35:26.286Z,23.7
2019-02-22T13:36:28.715Z,23.7
2019-02-22T13:37:30.649Z,23.7
2019-02-22T13:38:32.806Z,23.7
2019-02-22T13:39:34.968Z,23.7
2019-02-22T13:40:37.392Z,23.7
2019-02-22T13:41:39.551Z,23.7
2019-02-22T13:42:41.431Z,23.7
2019-02-22T13:43:43.866Z,23.7
2019-02-22T13:44:46.017Z,23.6
2019-02-22T13:45:48.389Z,23.7
2019-02-22T13:46:50.555Z,23.6
2019-02-22T13:53:06.488Z,23.6
2019-02-22T13:54:09.172Z,23.6
2019-02-22T13:55:11.684Z,23.6
2019-02-22T13:56:14.340Z,23.6
2019-02-22T13:57:16.774Z,23.6
2019-02-22T13:58:18.632Z,23.6
2019-02-22T13:59:21.420Z,23.6
2019-02-22T14:00:23.703Z,23.6
2019-02-22T14:01:25.815Z,23.6
2019-02-22T14:02:28.333Z,23.6
2019-02-22T14:03:30.769Z,23.6
2019-02-22T14:04:33.091Z,23.6
2019-02-22T14:05:35.516Z,23.6
2019-02-22T14:06:37.568Z,23.6
2019-02-22T14:07:39.721Z,23.6
2019-02-22T14:08:43.874Z,23.6
2019-02-22T14:09:46.065Z,23.6
2019-02-22T14:10:48.532Z,23.6
2019-02-22T14:11:50.972Z,23.6
2019-02-22T14:12:53.141Z,23.6
2019-02-22T14:13:55.329Z,23.6
2019-02-22T14:14:57.751Z,23.6
2019-02-22T14:16:00.174Z,23.6
2019-02-22T14:17:02.647Z,23.6